Sant Hilari Sacalm





Hora UTC 10:35
Temperatura 10.8 ºC
Sòl 15 cm 13.1 ºC
Humitat 94.8 %
Pressió 1012.1 hPa
Pluja 4.0 mm
Velocitat vent 6.1 km/h
Direcció vent NE
Radiació solar 130.8 W/m²

Dades diàries 2021-05-14



Hora UTC (hivern +1h; estiu +2h)
Temperatura (ºC) Humitat (%) Pressió (hPa) Velocitat vent (km/h) Precipitació (mm) Radiació solar (W/m²)
Hora UTC Aire Sòl 15 cm Humitat Pressió Vel. Dir. Vel. Max Dir. Intent. màx 5 min. Rad. Sol.
00:05 10.5 8.5 78.2 1010.4 3.9 W 3.9 W 0.0 0.1
00:10 10.4 8.5 78.8 1010.2 3.9 WSW 11.5 W 0.0 0.1
00:15 10.7 8.5 78.1 1010.1 4.7 SSW 8.8 SW 0.0 0.1
00:20 10.8 8.6 77.3 1010.1 4.2 SW 8.8 S 0.0 0.1
00:25 10.7 8.5 77.6 1010.2 4.0 WSW 8.8 WSW 0.0 0.1
00:30 10.5 8.3 78.3 1010.3 3.5 S 8.8 SW 0.0 0.1
00:35 10.7 8.4 77.4 1010.3 4.9 SSW 8.8 SW 0.0 0.1
00:40 10.7 8.7 77.1 1010.3 2.0 SSW 6.1 S 0.0 0.1
00:45 10.7 8.9 77.6 1010.3 4.4 S 8.8 S 0.0 0.1
00:50 10.8 9.1 77.5 1010.2 5.7 SW 11.5 WSW 0.0 0.1
00:55 10.7 9.2 78.2 1010.3 2.2 WSW 6.1 WSW 0.0 0.1
01:00 10.6 9.2 79.1 1010.3 1.0 W 8.8 WSW 0.0 0.1
01:05 10.6 9.1 79.7 1010.2 1.4 SSW 6.1 SW 0.0 0.1
01:10 10.7 9.1 79.5 1010.1 2.2 SE 6.1 ESE 0.0 0.1
01:15 10.7 9.1 79.8 1010.1 3.5 ESE 6.1 ESE 0.0 0.1
01:20 10.7 9.0 79.8 1010.0 3.0 E 6.1 ESE 0.0 0.1
01:25 10.5 8.7 80.2 1009.9 0.9 ENE 6.1 ENE 0.0 0.1
01:30 10.3 8.6 81.1 1009.9 0.0 NNE 0.0 ENE 0.0 0.1
01:35 10.2 8.5 81.8 1009.9 0.0 NNE 0.0 ENE 0.0 0.1
01:40 10.2 8.6 81.8 1009.9 0.8 SW 6.1 WSW 0.0 0.1
01:45 10.4 8.7 81.3 1009.9 1.6 SSW 6.1 S 0.0 0.1
01:50 10.4 8.9 81.5 1009.9 1.7 WSW 6.1 W 0.0 0.1
01:55 10.3 9.1 82.5 1009.8 1.2 SSW 6.1 SW 0.0 0.1
02:00 10.3 9.1 82.8 1009.7 0.4 SSW 3.4 SSW 0.0 0.1
02:05 10.2 9.0 83.2 1009.7 1.0 WSW 6.1 W 0.0 0.1
02:10 10.2 9.0 83.7 1009.8 4.1 W 6.1 W 0.0 0.1
02:15 10.2 9.0 84.0 1009.8 2.7 SW 6.1 WSW 0.0 0.1
02:20 10.2 9.0 83.8 1009.7 0.7 SW 6.1 SW 0.0 0.1
02:25 10.2 9.0 83.9 1009.8 0.0 NNE 0.0 SSW 0.0 0.1
02:30 10.1 9.0 84.2 1009.8 0.0 NNE 0.0 SSW 0.0 0.1
02:35 10.2 9.0 84.3 1009.8 0.0 NNE 0.0 SSW 0.0 0.1
02:40 10.2 9.1 84.5 1009.8 0.2 ESE 3.4 SE 0.0 0.1
02:45 10.1 9.1 84.8 1009.7 3.4 ENE 8.8 ENE 0.0 0.1
02:50 9.9 9.0 85.7 1009.6 0.0 NNE 0.0 ENE 0.0 0.1
02:55 9.8 8.9 86.2 1009.5 0.0 NNE 0.0 ENE 0.0 0.1
03:00 9.7 8.7 86.8 1009.5 1.3 NE 6.1 NNE 0.0 0.1
03:05 9.4 8.6 88.3 1009.5 1.7 N 3.4 NNE 0.0 0.1
03:10 9.4 8.5 89.0 1009.5 0.0 NNE 0.0 NNE 0.0 0.1
03:15 9.4 8.5 88.5 1009.6 0.0 NNE 0.0 NNE 0.0 0.1
03:20 9.6 8.5 87.5 1009.6 0.9 E 6.1 E 0.0 0.1
03:25 9.7 8.6 86.4 1009.6 4.0 E 6.1 ENE 0.0 0.1
03:30 9.8 8.7 85.7 1009.6 4.8 ESE 8.8 ENE 0.0 0.1
03:35 9.8 8.8 85.9 1009.7 4.9 ESE 8.8 ESE 0.0 0.1
03:40 9.8 8.9 85.5 1009.7 4.1 E 6.1 ESE 0.0 0.1
03:45 9.8 8.9 85.6 1009.7 0.1 E 3.4 ESE 0.0 0.1
03:50 9.6 8.9 87.1 1009.7 0.8 NNE 3.4 NNE 0.0 0.1
03:55 9.4 8.8 88.1 1009.8 0.5 ENE 3.4 NNE 0.0 0.1
04:00 9.3 8.7 87.9 1009.9 0.0 ENE 3.4 ENE 0.0 0.1
04:05 9.3 8.7 88.4 1009.8 0.0 NNE 0.0 ENE 0.0 0.1
04:10 9.3 8.7 88.4 1009.8 0.0 NNE 0.0 ENE 0.0 0.1
04:15 9.3 8.7 88.5 1009.7 1.2 S 6.1 ESE 0.0 0.1
04:20 9.5 8.8 88.5 1009.8 4.5 S 8.8 SSW 0.0 0.1
04:25 9.4 8.8 89.0 1009.9 2.0 S 6.1 SW 0.0 0.2
04:30 9.4 8.8 89.6 1009.9 2.8 SSW 8.8 S 0.0 0.4
04:35 9.5 8.8 89.8 1009.9 3.3 SSW 6.1 SSW 0.0 0.7
04:40 9.6 8.9 89.1 1009.8 5.5 S 8.8 S 0.0 1.4
04:45 9.6 8.9 88.7 1009.7 4.2 SSW 8.8 SSW 0.0 3.1
04:50 9.6 8.9 88.7 1009.7 4.8 SW 8.8 SW 0.0 3.7
04:55 9.6 8.9 88.0 1009.8 5.3 SSW 8.8 SSW 0.0 3.0
05:00 9.6 8.8 87.5 1009.9 6.1 SSW 11.5 SSW 0.0 4.5
05:05 9.5 8.8 87.6 1009.9 5.1 SSW 8.8 SW 0.0 7.5
05:10 9.5 8.8 87.7 1009.9 4.3 S 8.8 S 0.0 7.9
05:15 9.6 8.9 87.4 1009.9 4.8 SSW 8.8 SSW 0.0 7.5
05:20 9.6 8.9 87.4 1009.9 4.0 S 6.1 SSW 0.0 9.8
05:25 9.6 9.0 86.8 1010.0 4.9 SSW 8.8 SSW 0.0 16.1
05:30 9.7 9.0 86.1 1010.1 4.9 S 8.8 S 0.0 18.4
05:35 9.7 9.2 86.0 1010.1 5.5 S 8.8 S 0.0 26.4
05:40 9.8 9.3 86.0 1010.2 5.0 SSW 8.8 SSW 0.0 31.1
05:45 9.8 9.4 85.9 1010.1 5.5 SSW 8.8 SSE 0.0 38.1
05:50 9.7 9.5 86.4 1010.1 5.7 S 11.5 SSW 0.0 41.9
05:55 9.7 9.6 86.5 1010.0 6.3 S 11.5 SSW 0.0 31.5
06:00 9.7 9.7 86.4 1010.1 4.5 SSW 8.8 SSW 0.0 47.6
06:05 9.8 9.8 86.1 1010.2 3.7 SSW 11.5 SW 0.0 49.3
06:10 9.9 9.9 85.6 1010.3 5.1 SSW 11.5 SSW 0.0 51.5
06:15 9.9 10.1 85.0 1010.3 5.0 S 8.8 S 0.0 72.0
06:20 10.0 10.3 84.6 1010.3 5.9 SSW 11.5 S 0.0 66.2
06:25 10.1 10.3 84.5 1010.5 5.8 SW 11.5 SW 0.2 27.9
06:30 9.8 9.8 86.6 1010.5 3.7 W 8.8 SW 0.5 18.6
06:35 9.6 9.4 88.6 1010.6 1.3 WSW 6.1 WSW 0.2 15.9
06:40 9.4 9.1 90.4 1010.7 1.2 W 6.1 WNW 0.0 24.5
06:45 9.3 9.0 91.6 1010.7 2.0 WSW 6.1 W 0.2 25.6
06:50 9.2 8.9 91.8 1010.8 3.0 W 8.8 WSW 0.2 21.8
06:55 9.3 8.9 92.4 1010.8 3.6 SW 8.8 WSW 1.0 37.2
07:00 9.2 9.0 92.6 1010.8 5.8 SW 11.5 SSW 0.3 46.4
07:05 9.2 9.1 92.6 1010.9 7.9 SSW 14.2 SSW 0.6 71.5
07:10 9.2 9.0 92.2 1010.9 10.7 S 16.9 S 0.4 73.1
07:15 9.1 9.1 91.8 1010.9 6.9 S 16.9 S 0.2 106.8
07:20 9.1 9.3 91.2 1011.0 5.7 SSW 11.5 S 0.1 130.9
07:25 9.4 9.8 91.1 1011.0 5.0 SSW 11.5 SSW 0.0 115.1
07:30 9.5 9.8 90.2 1011.1 6.9 S 11.5 S 0.0 66.8
07:35 9.5 9.5 88.9 1011.1 6.3 S 8.8 S 0.0 72.9
07:40 9.6 9.6 88.0 1011.2 6.0 SSW 11.5 SSW 0.0 111.9
07:45 9.7 10.0 88.4 1011.2 7.4 SSW 14.2 SSW 0.0 181.8
07:50 9.7 10.2 90.1 1011.2 8.0 S 14.2 SSE 0.0 147.4
07:55 9.5 10.4 92.3 1011.3 7.2 SSW 11.5 S 0.0 181.9
08:00 9.8 11.5 93.5 1011.3 6.5 SSW 11.5 SSW 0.1 429.9
08:05 10.3 13.4 93.5 1011.4 6.1 SSW 14.2 SW 0.0 471.8
08:10 10.5 13.9 92.3 1011.4 6.6 SSW 14.2 SW 0.0 368.7
08:15 10.8 13.9 91.5 1011.5 5.8 SSW 11.5 SSW 0.0 312.6
08:20 11.0 14.3 90.8 1011.5 5.1 S 11.5 SSW 0.0 530.4
08:25 11.5 15.8 88.6 1011.5 6.8 SW 14.2 SSW 0.0 648.8
08:30 12.4 16.6 85.2 1011.5 6.1 WNW 11.5 W 0.0 543.3
08:35 12.7 16.6 82.3 1011.5 7.9 WSW 19.6 WSW 0.0 446.7
08:40 12.4 14.9 81.6 1011.6 7.8 W 19.6 N 0.0 131.8
08:45 12.0 13.8 81.7 1011.7 4.8 W 11.5 W 0.0 152.9
08:50 12.0 13.4 83.3 1011.7 5.2 WNW 19.6 WNW 0.0 186.5
08:55 12.0 13.9 83.5 1011.6 6.1 W 14.2 WSW 0.0 433.5
09:00 12.2 14.2 82.6 1011.7 6.5 W 14.2 WNW 0.0 239.3
09:05 12.0 14.3 83.8 1011.8 4.4 S 8.8 SSW 0.0 378.0
09:10 12.2 15.1 84.4 1011.7 4.7 SSW 14.2 WSW 0.0 242.8
09:15 12.1 15.2 86.1 1011.8 3.6 ESE 8.8 ENE 0.0 230.4
09:20 11.8 14.8 88.5 1011.9 3.0 E 8.8 NE 0.0 121.0
09:25 11.5 14.1 90.5 1012.0 2.4 NE 8.8 E 0.0 120.4
09:30 11.1 14.1 91.7 1012.0 5.1 ESE 8.8 ESE 0.0 301.0
09:35 11.0 14.4 92.6 1012.0 4.3 E 8.8 NE 0.0 296.5
09:40 11.0 14.7 93.1 1012.1 4.9 E 8.8 E 0.0 241.0
09:45 11.0 14.0 93.4 1012.0 5.0 ENE 11.5 NE 0.0 140.7
09:50 11.1 13.9 94.0 1012.1 2.8 ENE 8.8 NE 0.0 126.7
09:55 11.1 13.7 93.8 1012.1 1.1 SE 6.1 S 0.0 145.4
10:00 11.2 13.8 93.3 1012.2 2.6 SE 8.8 ESE 0.0 157.0
10:05 11.1 13.6 93.3 1012.2 4.8 NE 11.5 NE 0.0 182.4
10:10 11.0 13.6 94.0 1012.2 6.6 E 11.5 E 0.0 158.7
10:15 10.9 13.7 94.3 1012.2 3.6 ENE 8.8 ENE 0.0 216.1
10:20 11.1 14.2 94.7 1012.2 6.4 E 11.5 ENE 0.0 287.9
10:25 11.4 14.5 94.4 1012.1 6.1 E 11.5 E 0.0 200.7
10:30 11.1 13.8 94.0 1012.1 8.3 E 14.2 ESE 0.0 75.8
10:35 10.8 13.1 94.8 1012.1 6.1 NE 14.2 ENE 0.0 130.8
Màxima 12.9 16.6 94.8 1012.2 10.7 S 19.6 WNW 1.0 648.8
Mínima 9.0 8.3 77.1 1009.5
Total 4.0